createdAt,value
2022-09-13T00:00:52.386Z,17.80
2022-09-13T00:03:21.340Z,18.00
2022-09-13T00:05:50.506Z,18.00
2022-09-13T00:08:19.253Z,18.10
2022-09-13T00:10:48.715Z,17.80
2022-09-13T00:13:18.064Z,17.40
2022-09-13T00:15:47.408Z,17.30
2022-09-13T00:18:16.567Z,17.40
2022-09-13T00:20:44.706Z,17.60
2022-09-13T00:23:13.421Z,18.10
2022-09-13T00:25:41.889Z,18.40
2022-09-13T00:28:11.281Z,17.90
2022-09-13T00:30:39.444Z,17.60
2022-09-13T00:33:07.474Z,17.40
2022-09-13T00:35:35.757Z,17.30
2022-09-13T00:38:03.804Z,17.50
2022-09-13T00:40:31.852Z,17.60
2022-09-13T00:42:59.872Z,17.80
2022-09-13T00:45:30.379Z,17.80
2022-09-13T00:48:02.722Z,18.00
2022-09-13T00:50:35.679Z,18.10
2022-09-13T00:53:09.176Z,18.10
2022-09-13T00:55:43.207Z,17.90
2022-09-13T00:58:16.973Z,17.90
2022-09-13T01:00:48.020Z,17.90
2022-09-13T01:03:18.871Z,17.90
2022-09-13T01:05:53.694Z,17.60
2022-09-13T01:08:23.321Z,17.70
2022-09-13T01:10:53.046Z,17.30
2022-09-13T01:13:23.697Z,17.40
2022-09-13T01:15:53.805Z,17.40
2022-09-13T01:18:22.369Z,17.90
2022-09-13T01:21:31.713Z,18.00
2022-09-13T01:24:41.199Z,18.10
2022-09-13T01:27:31.302Z,18.20
2022-09-13T01:30:15.900Z,18.40
2022-09-13T01:33:02.892Z,18.30
2022-09-13T01:35:41.237Z,18.30
2022-09-13T01:38:19.639Z,18.30
2022-09-13T01:41:06.069Z,18.30
2022-09-13T01:43:46.357Z,18.30
2022-09-13T01:46:20.934Z,18.10
2022-09-13T01:48:57.851Z,17.40
2022-09-13T01:51:32.164Z,17.20
2022-09-13T01:54:16.388Z,17.30
2022-09-13T01:56:52.475Z,17.70
2022-09-13T01:59:25.423Z,18.00
2022-09-13T02:02:00.421Z,18.00
2022-09-13T02:04:31.313Z,17.80
2022-09-13T02:07:05.601Z,17.90
2022-09-13T02:09:37.453Z,17.90
2022-09-13T02:12:12.120Z,17.90
2022-09-13T02:14:42.887Z,17.90
2022-09-13T02:17:16.071Z,18.10
2022-09-13T02:19:51.037Z,17.90
2022-09-13T02:22:23.121Z,17.80
2022-09-13T02:24:56.788Z,17.90
2022-09-13T02:27:28.203Z,17.90
2022-09-13T02:30:01.877Z,18.10
2022-09-13T02:32:36.986Z,17.70
2022-09-13T02:35:10.216Z,17.50
2022-09-13T02:37:41.252Z,17.70
2022-09-13T02:40:14.894Z,17.70
2022-09-13T02:42:46.441Z,17.90
2022-09-13T02:45:15.679Z,17.90
2022-09-13T02:47:53.252Z,17.90
2022-09-13T02:50:32.948Z,17.90
2022-09-13T02:53:08.720Z,18.00
2022-09-13T02:55:43.795Z,17.40
2022-09-13T02:58:15.848Z,17.40
2022-09-13T03:00:44.215Z,17.40
2022-09-13T03:03:15.735Z,17.50
2022-09-13T03:05:44.556Z,17.80
2022-09-13T03:08:15.557Z,17.90
2022-09-13T03:10:53.265Z,17.90
2022-09-13T03:13:52.518Z,17.90
2022-09-13T03:16:34.611Z,17.80
2022-09-13T03:19:18.953Z,17.70
2022-09-13T03:22:00.620Z,18.00
2022-09-13T03:24:39.597Z,18.30
2022-09-13T03:27:19.232Z,18.40
2022-09-13T03:29:57.484Z,18.20
2022-09-13T03:32:32.601Z,18.00
2022-09-13T03:35:09.183Z,18.00
2022-09-13T03:37:46.483Z,18.10
2022-09-13T03:40:17.620Z,18.10
2022-09-13T03:42:50.873Z,18.20
2022-09-13T03:45:23.393Z,17.80
2022-09-13T03:47:53.105Z,17.80
2022-09-13T03:50:24.640Z,17.90
2022-09-13T03:52:57.442Z,17.80
2022-09-13T03:55:26.094Z,17.80
2022-09-13T03:57:54.127Z,17.80
2022-09-13T04:00:22.684Z,17.90
2022-09-13T04:02:51.058Z,17.80
2022-09-13T04:05:19.095Z,17.50
2022-09-13T04:07:48.469Z,17.60
2022-09-13T04:10:16.716Z,17.40
2022-09-13T04:12:44.765Z,17.70
2022-09-13T04:15:12.883Z,18.00
2022-09-13T04:17:40.889Z,18.10
2022-09-13T04:20:09.572Z,18.10
2022-09-13T04:22:37.593Z,17.90
2022-09-13T04:25:08.006Z,18.10
2022-09-13T04:27:36.659Z,18.20
2022-09-13T04:30:05.204Z,18.20
2022-09-13T04:32:33.746Z,17.90
2022-09-13T04:35:01.834Z,17.60
2022-09-13T04:37:29.891Z,17.50
2022-09-13T04:39:58.750Z,17.70
2022-09-13T04:42:28.185Z,17.80
2022-09-13T04:44:56.319Z,18.00
2022-09-13T04:47:24.468Z,18.10
2022-09-13T04:49:52.506Z,18.40
2022-09-13T04:52:20.547Z,18.60
2022-09-13T04:54:48.739Z,18.60
2022-09-13T04:57:17.455Z,18.30
2022-09-13T04:59:46.829Z,17.90
2022-09-13T05:02:14.910Z,17.70
2022-09-13T05:04:43.064Z,17.90
2022-09-13T05:07:11.080Z,18.00
2022-09-13T05:09:39.234Z,18.10
2022-09-13T05:12:07.658Z,18.10
2022-09-13T05:14:36.125Z,18.10
2022-09-13T05:17:05.651Z,18.30
2022-09-13T05:19:33.798Z,18.60
2022-09-13T05:22:01.924Z,18.70
2022-09-13T05:24:30.080Z,18.40
2022-09-13T05:26:58.090Z,18.40
2022-09-13T05:29:26.119Z,18.60
2022-09-13T05:31:54.194Z,18.40
2022-09-13T05:34:23.663Z,18.30
2022-09-13T05:36:54.229Z,18.40
2022-09-13T05:39:43.736Z,18.60
2022-09-13T05:42:11.190Z,18.90
2022-09-13T05:44:39.271Z,18.80
2022-09-13T05:47:07.740Z,18.70
2022-09-13T05:49:51.100Z,18.60
2022-09-13T05:52:25.258Z,18.70
2022-09-13T05:54:53.309Z,18.40
2022-09-13T05:57:21.316Z,18.60
2022-09-13T05:59:49.384Z,18.50
2022-09-13T06:02:17.468Z,18.40
2022-09-13T06:04:47.033Z,18.60
2022-09-13T06:07:15.076Z,18.70
2022-09-13T06:09:43.132Z,18.00
2022-09-13T06:12:11.200Z,17.60
2022-09-13T06:14:39.278Z,17.80
2022-09-13T06:17:07.316Z,18.10
2022-09-13T06:19:35.391Z,18.50
2022-09-13T06:22:04.854Z,18.70
2022-09-13T06:24:33.017Z,18.80
2022-09-13T06:27:01.010Z,18.80
2022-09-13T06:29:29.066Z,18.50
2022-09-13T06:31:57.080Z,18.40
2022-09-13T06:34:28.030Z,18.40
2022-09-13T06:36:59.085Z,18.50
2022-09-13T06:39:29.283Z,18.90
2022-09-13T06:41:57.282Z,18.80
2022-09-13T06:44:25.337Z,18.70
2022-09-13T06:46:53.352Z,19.30
2022-09-13T06:49:21.424Z,19.60
2022-09-13T06:51:49.489Z,19.60
2022-09-13T06:54:17.616Z,20.10
2022-09-13T06:56:46.995Z,19.90
2022-09-13T06:59:15.051Z,20.30
2022-09-13T07:01:44.840Z,20.30
2022-09-13T07:04:14.460Z,19.90
2022-09-13T07:06:44.230Z,19.20
2022-09-13T07:09:14.146Z,19.30
2022-09-13T07:11:43.300Z,19.30
2022-09-13T07:14:15.426Z,19.30
2022-09-13T07:16:43.439Z,19.30
2022-09-13T07:19:15.386Z,19.50
2022-09-13T07:21:43.754Z,19.60
2022-09-13T07:24:12.241Z,19.70
2022-09-13T07:26:40.714Z,19.90
2022-09-13T07:29:11.481Z,20.00
2022-09-13T07:31:42.843Z,20.30
2022-09-13T07:34:15.019Z,20.50
2022-09-13T07:36:43.371Z,20.50
2022-09-13T07:39:15.618Z,20.90
2022-09-13T07:41:46.439Z,21.50
2022-09-13T07:44:15.024Z,21.70
2022-09-13T07:46:44.490Z,22.00
2022-09-13T07:49:13.958Z,24.00
2022-09-13T07:51:43.760Z,25.10
2022-09-13T07:54:14.192Z,25.50
2022-09-13T07:56:43.373Z,25.00
2022-09-13T07:59:14.079Z,25.20
2022-09-13T08:01:45.555Z,24.20
2022-09-13T08:04:17.268Z,24.00
2022-09-13T08:06:46.432Z,24.00
2022-09-13T08:09:15.489Z,24.70
2022-09-13T08:11:45.629Z,25.30
2022-09-13T08:14:15.804Z,25.50
2022-09-13T08:16:45.378Z,24.70
2022-09-13T08:19:15.925Z,24.20
2022-09-13T08:21:44.070Z,23.80
2022-09-13T08:24:16.397Z,23.40
2022-09-13T08:26:44.988Z,23.40
2022-09-13T08:29:14.173Z,23.50
2022-09-13T08:31:43.970Z,23.40
2022-09-13T08:34:14.489Z,24.30
2022-09-13T08:36:42.525Z,23.90
2022-09-13T08:39:12.792Z,23.70
2022-09-13T08:42:25.926Z,24.40
2022-09-13T08:44:57.606Z,23.60
2022-09-13T08:47:47.306Z,24.00
2022-09-13T08:50:20.447Z,24.40
2022-09-13T08:52:58.546Z,24.90
2022-09-13T08:55:36.127Z,25.40
2022-09-13T08:58:18.192Z,24.30
2022-09-13T09:00:51.186Z,24.80
2022-09-13T09:03:31.473Z,25.70
2022-09-13T09:05:59.871Z,26.70
2022-09-13T09:08:34.440Z,26.60
2022-09-13T09:11:08.786Z,27.40
2022-09-13T09:13:38.765Z,28.50
2022-09-13T09:16:13.590Z,28.80
2022-09-13T09:18:45.775Z,28.10
2022-09-13T09:21:17.746Z,27.40
2022-09-13T09:23:52.501Z,27.20
2022-09-13T09:26:22.923Z,25.70
2022-09-13T09:28:55.063Z,26.70
2022-09-13T09:31:32.537Z,28.10
2022-09-13T09:34:12.573Z,27.20
2022-09-13T09:36:43.665Z,25.70
2022-09-13T09:39:13.999Z,25.30
2022-09-13T09:41:42.106Z,25.40
2022-09-13T09:44:18.886Z,25.30
2022-09-13T09:46:51.183Z,25.60
2022-09-13T09:49:43.980Z,25.90
2022-09-13T09:52:16.218Z,25.10
2022-09-13T09:54:45.359Z,24.90
2022-09-13T09:57:14.756Z,25.10
2022-09-13T09:59:42.793Z,25.90
2022-09-13T10:02:18.682Z,27.50
2022-09-13T10:04:57.838Z,26.20
2022-09-13T10:07:30.987Z,26.00
2022-09-13T10:10:04.425Z,27.10
2022-09-13T10:12:35.430Z,26.80
2022-09-13T10:15:18.376Z,27.80
2022-09-13T10:18:21.110Z,26.80
2022-09-13T10:21:05.417Z,27.40
2022-09-13T10:23:34.381Z,27.60
2022-09-13T10:26:07.609Z,27.30
2022-09-13T10:28:38.059Z,26.30
2022-09-13T10:31:12.784Z,26.70
2022-09-13T10:33:45.453Z,27.20
2022-09-13T10:36:41.239Z,27.60
2022-09-13T10:39:17.494Z,26.10
2022-09-13T10:41:52.793Z,27.30
2022-09-13T10:44:44.706Z,27.60
2022-09-13T10:47:15.926Z,28.40
2022-09-13T10:49:47.875Z,27.50
2022-09-13T10:52:32.153Z,27.00
2022-09-13T10:55:34.710Z,28.60
2022-09-13T10:58:19.437Z,27.40
2022-09-13T11:01:18.475Z,27.10
2022-09-13T11:04:33.571Z,26.90
2022-09-13T11:07:14.854Z,27.70
2022-09-13T11:09:50.530Z,27.20
2022-09-13T11:12:24.308Z,26.60
2022-09-13T11:15:05.163Z,26.90
2022-09-13T11:17:55.384Z,28.10
2022-09-13T11:20:34.596Z,27.80
2022-09-13T11:23:22.276Z,27.10
2022-09-13T11:26:05.282Z,28.40
2022-09-13T11:28:42.438Z,28.70
2022-09-13T11:31:22.563Z,27.40
2022-09-13T11:34:06.214Z,27.90
2022-09-13T11:36:45.886Z,28.10
2022-09-13T11:39:22.569Z,26.70
2022-09-13T11:42:04.937Z,26.70
2022-09-13T11:44:55.727Z,26.70
2022-09-13T11:47:35.872Z,26.90
2022-09-13T11:50:28.679Z,27.40
2022-09-13T11:53:12.789Z,27.80
2022-09-13T11:55:44.696Z,27.90
2022-09-13T11:58:19.723Z,26.40
2022-09-13T12:00:50.606Z,26.20
2022-09-13T12:03:27.323Z,26.70
2022-09-13T12:05:58.740Z,26.60
2022-09-13T12:08:30.656Z,26.90
2022-09-13T12:11:03.658Z,27.30
2022-09-13T12:13:37.297Z,26.30
2022-09-13T12:16:09.772Z,25.70
2022-09-13T12:18:41.845Z,25.70
2022-09-13T12:21:12.323Z,25.80
2022-09-13T12:23:47.482Z,25.90
2022-09-13T12:26:20.868Z,25.80
2022-09-13T12:28:55.327Z,26.00
2022-09-13T12:31:26.433Z,25.60
2022-09-13T12:33:55.930Z,25.80
2022-09-13T12:36:41.931Z,25.30
2022-09-13T12:39:39.377Z,24.90
2022-09-13T12:42:38.851Z,25.00
2022-09-13T12:45:21.667Z,24.10
2022-09-13T12:48:16.011Z,23.40
2022-09-13T12:51:00.615Z,23.20
2022-09-13T12:54:09.608Z,23.40
2022-09-13T12:56:53.642Z,23.50
2022-09-13T12:59:44.792Z,23.40
2022-09-13T13:02:31.145Z,23.60
2022-09-13T13:05:02.078Z,23.80
2022-09-13T13:07:33.701Z,23.80
2022-09-13T13:10:03.146Z,24.00
2022-09-13T13:12:33.802Z,23.80
2022-09-13T13:15:03.087Z,23.50
2022-09-13T13:17:51.019Z,23.50
2022-09-13T13:20:41.854Z,23.60
2022-09-13T13:23:31.871Z,23.40
2022-09-13T13:26:07.741Z,23.40
2022-09-13T13:29:13.408Z,23.80
2022-09-13T13:31:43.857Z,23.90
2022-09-13T13:34:32.027Z,23.60
2022-09-13T13:37:04.196Z,23.60
2022-09-13T13:39:50.697Z,23.70
2022-09-13T13:42:27.189Z,23.60
2022-09-13T13:45:15.094Z,23.70
2022-09-13T13:48:15.521Z,23.60
2022-09-13T13:51:20.704Z,23.20
2022-09-13T13:54:25.216Z,23.00
2022-09-13T13:56:53.350Z,22.70
2022-09-13T13:59:26.850Z,22.60
2022-09-13T14:01:59.614Z,22.50
2022-09-13T14:04:48.630Z,22.30
2022-09-13T14:07:37.152Z,22.40
2022-09-13T14:10:14.404Z,22.40
2022-09-13T14:12:55.203Z,22.50
2022-09-13T14:15:35.083Z,22.50
2022-09-13T14:18:38.139Z,22.60
2022-09-13T14:21:20.940Z,22.90
2022-09-13T14:23:49.062Z,23.10
2022-09-13T14:26:18.542Z,22.90
2022-09-13T14:28:46.709Z,22.70
2022-09-13T14:31:20.401Z,22.40
2022-09-13T14:33:49.021Z,22.20
2022-09-13T14:36:20.584Z,21.90
2022-09-13T14:38:55.104Z,21.50
2022-09-13T14:41:34.151Z,21.50
2022-09-13T14:44:26.381Z,21.60
2022-09-13T14:47:02.732Z,21.70
2022-09-13T14:49:34.631Z,21.80
2022-09-13T14:52:06.253Z,21.80
2022-09-13T14:54:39.905Z,21.90
2022-09-13T14:57:16.892Z,22.30
2022-09-13T14:59:47.995Z,22.40
2022-09-13T15:02:21.667Z,22.30
2022-09-13T15:04:56.234Z,22.00
2022-09-13T15:07:29.441Z,22.10
2022-09-13T15:10:00.694Z,22.40
2022-09-13T15:12:30.207Z,22.40
2022-09-13T15:15:35.843Z,22.30
2022-09-13T15:18:05.671Z,22.50
2022-09-13T15:20:48.925Z,22.50
2022-09-13T15:23:18.697Z,22.70
2022-09-13T15:25:52.187Z,22.70
2022-09-13T15:28:28.151Z,22.70
2022-09-13T15:30:58.696Z,22.50
2022-09-13T15:33:29.786Z,22.60
2022-09-13T15:36:28.149Z,22.90
2022-09-13T15:39:04.557Z,23.40
2022-09-13T15:41:34.726Z,23.40
2022-09-13T15:44:09.256Z,23.10
2022-09-13T15:46:45.827Z,22.70
2022-09-13T15:49:18.339Z,22.10
2022-09-13T15:51:46.636Z,21.90
2022-09-13T15:54:17.185Z,21.80
2022-09-13T15:56:51.373Z,21.70
2022-09-13T15:59:22.792Z,21.60
2022-09-13T16:01:52.531Z,21.70
2022-09-13T16:04:21.014Z,22.10
2022-09-13T16:06:49.085Z,22.60
2022-09-13T16:09:20.430Z,22.30
2022-09-13T16:11:49.550Z,22.00
2022-09-13T16:14:19.162Z,21.80
2022-09-13T16:16:49.022Z,21.70
2022-09-13T16:19:20.292Z,22.00
2022-09-13T16:21:48.504Z,22.40
2022-09-13T16:24:17.122Z,22.60
2022-09-13T16:26:45.220Z,22.20
2022-09-13T16:29:14.335Z,22.20
2022-09-13T16:31:42.671Z,22.30
2022-09-13T16:34:12.109Z,22.40
2022-09-13T16:36:40.432Z,22.40
2022-09-13T16:39:08.485Z,22.20
2022-09-13T16:41:36.682Z,21.50
2022-09-13T16:44:05.454Z,21.00
2022-09-13T16:46:33.838Z,21.00
2022-09-13T16:49:02.126Z,21.20
2022-09-13T16:51:31.674Z,21.10
2022-09-13T16:54:00.526Z,21.40
2022-09-13T16:56:29.973Z,21.50
2022-09-13T16:58:58.500Z,21.40
2022-09-13T17:01:28.800Z,21.10
2022-09-13T17:03:57.793Z,20.90
2022-09-13T17:06:27.834Z,20.70
2022-09-13T17:09:00.714Z,20.70
2022-09-13T17:11:30.481Z,20.60
2022-09-13T17:13:58.891Z,20.60
2022-09-13T17:16:30.411Z,20.60
2022-09-13T17:19:00.158Z,20.50
2022-09-13T17:21:29.501Z,20.50
2022-09-13T17:23:58.898Z,20.40
2022-09-13T17:26:27.139Z,20.40
2022-09-13T17:28:55.169Z,20.40
2022-09-13T17:31:23.314Z,20.40
2022-09-13T17:33:53.201Z,20.20
2022-09-13T17:36:22.359Z,20.20
2022-09-13T17:38:50.562Z,20.30
2022-09-13T17:41:20.623Z,20.30
2022-09-13T17:43:49.151Z,20.20
2022-09-13T17:46:21.207Z,20.30
2022-09-13T17:48:50.180Z,20.40
2022-09-13T17:51:20.424Z,20.40
2022-09-13T17:53:50.121Z,20.40
2022-09-13T17:56:21.022Z,20.30
2022-09-13T17:58:49.211Z,20.20
2022-09-13T18:01:18.005Z,20.20
2022-09-13T18:03:46.278Z,20.20
2022-09-13T18:06:15.003Z,20.10
2022-09-13T18:08:43.174Z,20.10
2022-09-13T18:11:14.240Z,20.10
2022-09-13T18:13:46.185Z,20.00
2022-09-13T18:16:21.001Z,19.90
2022-09-13T18:18:50.655Z,19.80
2022-09-13T18:21:20.579Z,19.90
2022-09-13T18:23:50.234Z,20.00
2022-09-13T18:26:20.254Z,20.10
2022-09-13T18:28:55.847Z,20.00
2022-09-13T18:31:25.098Z,19.90
2022-09-13T18:33:57.683Z,20.00
2022-09-13T18:36:26.983Z,19.90
2022-09-13T18:38:56.025Z,19.70
2022-09-13T18:41:26.074Z,19.90
2022-09-13T18:43:56.499Z,20.00
2022-09-13T18:46:26.613Z,20.10
2022-09-13T18:48:57.532Z,20.20
2022-09-13T18:51:27.366Z,20.10
2022-09-13T18:53:56.721Z,20.00
2022-09-13T18:56:26.041Z,19.90
2022-09-13T18:58:56.575Z,19.70
2022-09-13T19:01:26.654Z,19.80
2022-09-13T19:03:56.934Z,19.90
2022-09-13T19:06:27.421Z,19.90
2022-09-13T19:08:56.672Z,19.90
2022-09-13T19:11:45.729Z,19.90
2022-09-13T19:14:18.175Z,19.80
2022-09-13T19:16:46.303Z,19.60
2022-09-13T19:19:14.419Z,19.80
2022-09-13T19:21:42.902Z,19.90
2022-09-13T19:24:17.624Z,19.90
2022-09-13T19:26:47.995Z,20.10
2022-09-13T19:29:19.265Z,20.10
2022-09-13T19:31:49.441Z,20.20
2022-09-13T19:34:19.489Z,20.20
2022-09-13T19:36:49.641Z,20.10
2022-09-13T19:39:18.053Z,19.80
2022-09-13T19:41:46.341Z,19.70
2022-09-13T19:44:15.282Z,19.90
2022-09-13T19:46:44.954Z,19.90
2022-09-13T19:49:15.475Z,19.90
2022-09-13T19:51:48.814Z,19.80
2022-09-13T19:54:20.617Z,19.80
2022-09-13T19:56:49.980Z,19.90
2022-09-13T19:59:20.468Z,20.00
2022-09-13T20:01:50.020Z,20.00
2022-09-13T20:04:20.244Z,20.00
2022-09-13T20:06:50.204Z,19.90
2022-09-13T20:09:20.133Z,19.70
2022-09-13T20:11:48.992Z,19.60
2022-09-13T20:14:20.284Z,19.70
2022-09-13T20:16:49.780Z,19.90
2022-09-13T20:22:08.513Z,19.90
2022-09-13T20:24:36.725Z,19.90
2022-09-13T20:27:05.033Z,20.00
2022-09-13T20:29:33.097Z,20.00
2022-09-13T20:32:02.933Z,19.90
2022-09-13T20:34:31.756Z,19.70
2022-09-13T20:36:59.886Z,19.60
2022-09-13T20:39:27.943Z,19.60
2022-09-13T20:41:56.044Z,19.60
2022-09-13T20:44:24.111Z,19.50
2022-09-13T20:46:52.204Z,19.30
2022-09-13T20:49:22.282Z,19.40
2022-09-13T20:51:50.952Z,19.30
2022-09-13T20:54:19.401Z,19.40
2022-09-13T20:56:47.795Z,19.30
2022-09-13T20:59:15.895Z,19.00
2022-09-13T21:01:44.278Z,18.90
2022-09-13T21:04:12.389Z,18.90
2022-09-13T21:07:03.585Z,18.90
2022-09-13T21:09:32.474Z,18.90
2022-09-13T21:12:01.273Z,18.90
2022-09-13T21:14:32.305Z,19.10
2022-09-13T21:17:00.763Z,18.80
2022-09-13T21:19:30.237Z,18.80
2022-09-13T21:21:59.658Z,18.60
2022-09-13T21:24:27.774Z,18.70
2022-09-13T21:26:57.294Z,18.50
2022-09-13T21:29:25.750Z,18.60
2022-09-13T21:31:55.855Z,18.60
2022-09-13T21:34:26.445Z,18.50
2022-09-13T21:36:54.767Z,18.40
2022-09-13T21:39:24.695Z,18.40
2022-09-13T21:41:52.856Z,18.50
2022-09-13T21:44:20.961Z,18.50
2022-09-13T21:46:49.259Z,18.60
2022-09-13T21:49:17.348Z,18.70
2022-09-13T21:51:47.168Z,18.20
2022-09-13T21:54:16.734Z,18.10
2022-09-13T21:56:50.732Z,18.10
2022-09-13T21:59:20.264Z,18.00
2022-09-13T22:01:51.159Z,17.90
2022-09-13T22:04:22.063Z,17.90
2022-09-13T22:06:53.438Z,17.80
2022-09-13T22:09:22.976Z,17.80
2022-09-13T22:11:52.374Z,17.80
2022-09-13T22:14:21.956Z,17.80
2022-09-13T22:16:50.861Z,17.70
2022-09-13T22:19:20.973Z,17.70
2022-09-13T22:21:50.843Z,17.90
2022-09-13T22:24:21.742Z,18.00
2022-09-13T22:26:52.426Z,17.70
2022-09-13T22:29:22.091Z,17.70
2022-09-13T22:31:52.269Z,17.70
2022-09-13T22:34:22.480Z,17.70
2022-09-13T22:36:50.724Z,17.50
2022-09-13T22:39:19.274Z,17.40
2022-09-13T22:41:47.493Z,17.30
2022-09-13T22:44:16.872Z,17.50
2022-09-13T22:46:46.686Z,17.60
2022-09-13T22:49:16.213Z,17.50
2022-09-13T22:51:45.904Z,17.30
2022-09-13T22:54:14.869Z,17.50
2022-09-13T22:56:43.212Z,17.60
2022-09-13T22:59:15.002Z,17.70
2022-09-13T23:01:44.991Z,17.90
2022-09-13T23:04:13.507Z,17.60
2022-09-13T23:06:43.758Z,17.50
2022-09-13T23:09:13.921Z,17.40
2022-09-13T23:11:43.585Z,17.40
2022-09-13T23:14:14.562Z,17.20
2022-09-13T23:16:46.382Z,17.20
2022-09-13T23:19:15.351Z,17.20
2022-09-13T23:21:44.351Z,17.20
2022-09-13T23:24:14.473Z,17.20
2022-09-13T23:26:42.859Z,17.10
2022-09-13T23:29:14.394Z,17.10
2022-09-13T23:31:43.205Z,17.30
2022-09-13T23:34:14.462Z,17.40
2022-09-13T23:36:44.596Z,17.10
2022-09-13T23:39:16.957Z,17.00
2022-09-13T23:41:45.850Z,17.00
2022-09-13T23:44:14.680Z,17.10
2022-09-13T23:46:43.524Z,17.20
2022-09-13T23:49:13.019Z,17.40
2022-09-13T23:51:41.429Z,17.00
2022-09-13T23:54:10.282Z,16.90
2022-09-13T23:56:38.347Z,16.90
2022-09-13T23:59:07.288Z,16.90
